Time;durP1;ratioP1;P1;durP2;ratioP2;P2;SDS_P1;SDS_P2;PMS_P1;PMS_P2;Temp;Humidity;BMP_temperature;BMP_pressure;BME280_temperature;BME280_humidity;BME280_pressure;Samples;Min_cycle;Max_cycle;Signal;HPM_P1;HPM_P2
2021/10/28 00:12:39;;;;;;;26.23;14.60;;;;;;;8.28;71.27;100803.34;5050776;28;20043;-48
2021/10/28 00:15:09;;;;;;;22.80;14.95;;;;;;;8.49;69.69;100810.88;5050654;28;20029;-49
2021/10/28 00:20:09;;;;;;;22.58;14.60;;;;;;;8.38;70.12;100814.66;5050268;28;20031;-49
2021/10/28 00:22:36;;;;;;;22.80;15.15;;;;;;;8.21;70.92;100803.19;5050386;28;20017;-49
2021/10/28 00:25:01;;;;;;;23.17;14.75;;;;;;;7.98;71.30;100801.13;5050292;28;20070;-49
2021/10/28 00:27:27;;;;;;;26.98;15.38;;;;;;;8.07;70.94;100812.56;5050388;28;20032;-49
2021/10/28 00:29:53;;;;;;;23.48;15.18;;;;;;;8.19;71.71;100810.47;5050273;28;20017;-49
2021/10/28 00:32:18;;;;;;;25.63;15.18;;;;;;;8.31;69.89;100803.03;5050448;28;20497;-51
2021/10/28 00:34:44;;;;;;;24.55;15.00;;;;;;;8.08;70.46;100806.28;5050577;28;20023;-50
2021/10/28 00:37:10;;;;;;;25.33;14.50;;;;;;;8.14;71.34;100796.84;5050437;28;20469;-49
2021/10/28 00:39:36;;;;;;;23.08;14.73;;;;;;;8.06;72.11;100792.38;5049814;28;20033;-48
2021/10/28 00:42:02;;;;;;;24.77;14.70;;;;;;;8.19;70.44;100792.72;5050323;28;20115;-48
2021/10/28 00:44:27;;;;;;;22.63;14.80;;;;;;;8.04;71.09;100789.03;5050028;28;20032;-48
2021/10/28 00:46:53;;;;;;;20.33;14.13;;;;;;;8.14;70.82;100787.06;5049710;28;20032;-49
2021/10/28 00:49:18;;;;;;;23.13;15.40;;;;;;;8.18;70.43;100788.41;5049803;28;20024;-49
2021/10/28 00:51:44;;;;;;;22.60;15.00;;;;;;;8.14;70.37;100789.72;5050020;28;20453;-48
2021/10/28 00:54:14;;;;;;;26.27;15.43;;;;;;;8.10;71.98;100784.91;5050001;28;20028;-50
2021/10/28 00:56:42;;;;;;;23.05;14.65;;;;;;;8.07;70.55;100782.56;5049914;28;20032;-49
2021/10/28 00:59:07;;;;;;;25.10;14.85;;;;;;;7.89;71.55;100788.00;5049865;28;20433;-48
2021/10/28 01:01:33;;;;;;;22.10;14.57;;;;;;;8.00;71.28;100772.63;5050032;28;20021;-49
2021/10/28 01:03:58;;;;;;;24.05;14.68;;;;;;;8.09;70.51;100772.63;5050048;28;20068;-49
2021/10/28 01:06:24;;;;;;;23.48;14.85;;;;;;;8.06;70.05;100772.97;5049913;28;20033;-48
2021/10/28 01:08:49;;;;;;;22.88;14.95;;;;;;;7.99;71.46;100773.59;5048012;28;20029;-49
2021/10/28 01:11:15;;;;;;;26.38;15.63;;;;;;;8.01;70.82;100771.66;5049732;28;20097;-52
2021/10/28 01:13:40;;;;;;;22.92;14.98;;;;;;;8.00;71.60;100767.31;5049807;28;20029;-51
2021/10/28 01:16:06;;;;;;;23.13;14.95;;;;;;;7.99;70.29;100765.66;5049682;28;20028;-49
2021/10/28 01:18:36;;;;;;;23.48;15.05;;;;;;;7.60;71.07;100745.00;5049508;28;20025;-48
2021/10/28 01:21:02;;;;;;;27.95;14.80;;;;;;;7.81;72.18;100768.44;5049790;28;20056;-48
2021/10/28 01:23:27;;;;;;;25.15;15.00;;;;;;;7.90;72.11;100763.13;5049646;28;20032;-51
2021/10/28 01:25:58;;;;;;;25.98;15.35;;;;;;;7.97;72.11;100767.63;5049595;28;20128;-48
2021/10/28 01:28:25;;;;;;;22.50;15.32;;;;;;;8.34;70.34;100766.41;5049553;28;20031;-47
2021/10/28 01:30:53;;;;;;;27.20;15.77;;;;;;;8.35;68.91;100764.56;5049766;28;20056;-49
2021/10/28 01:33:18;;;;;;;28.42;15.63;;;;;;;8.13;69.96;100766.00;5048890;28;20518;-49
2021/10/28 01:35:44;;;;;;;26.45;15.63;;;;;;;8.32;69.48;100773.69;5049333;28;20054;-48
2021/10/28 01:38:11;;;;;;;22.75;14.90;;;;;;;7.98;70.38;100771.97;5049089;28;20377;-49
2021/10/28 01:40:37;;;;;;;25.98;15.55;;;;;;;8.13;70.63;100774.81;5047747;28;20028;-49
2021/10/28 01:43:02;;;;;;;23.35;15.07;;;;;;;8.05;70.20;100772.13;5049354;28;20036;-48
2021/10/28 01:45:28;;;;;;;25.65;15.07;;;;;;;7.88;71.50;100776.56;5048007;28;20025;-49
2021/10/28 01:47:53;;;;;;;21.98;14.07;;;;;;;8.06;70.84;100773.81;5049306;28;20027;-49
2021/10/28 01:50:19;;;;;;;21.52;13.25;;;;;;;7.73;72.37;100778.16;5049270;28;20021;-49
2021/10/28 01:52:44;;;;;;;19.85;12.48;;;;;;;7.67;71.42;100776.97;5049325;28;20036;-52
2021/10/28 01:55:10;;;;;;;20.90;13.00;;;;;;;7.64;72.00;100785.25;5049606;28;20017;-50
2021/10/28 01:57:36;;;;;;;21.55;13.25;;;;;;;7.64;72.22;100778.13;5049498;28;20025;-50
2021/10/28 02:00:12;;;;;;;21.95;13.30;;;;;;;7.53;72.32;100773.09;5051867;28;20515;-51
2021/10/28 02:02:38;;;;;;;22.55;13.07;;;;;;;7.59;73.15;100772.47;5052991;28;20028;-50
2021/10/28 02:05:05;;;;;;;22.27;13.50;;;;;;;7.94;70.94;100775.06;5052896;28;20411;-51
2021/10/28 02:07:31;;;;;;;22.00;13.23;;;;;;;7.71;71.81;100778.34;5051251;28;20017;-50
2021/10/28 02:09:56;;;;;;;22.38;14.50;;;;;;;7.87;72.04;100771.44;5052314;28;20029;-51
2021/10/28 02:12:21;;;;;;;19.63;12.43;;;;;;;7.72;71.67;100763.25;5052894;28;20017;-51
2021/10/28 02:14:47;;;;;;;22.48;13.18;;;;;;;7.66;71.22;100777.16;5052793;28;20032;-49
2021/10/28 02:17:12;;;;;;;21.90;13.90;;;;;;;7.63;71.58;100775.63;5053484;28;20455;-51
2021/10/28 02:19:38;;;;;;;20.10;13.50;;;;;;;7.68;72.25;100778.66;5053161;28;20075;-50
2021/10/28 02:22:03;;;;;;;20.23;13.35;;;;;;;7.41;72.03;100764.63;5052763;28;20020;-50
2021/10/28 02:24:30;;;;;;;18.70;12.60;;;;;;;7.50;72.12;100777.88;5053129;28;20029;-50
2021/10/28 02:26:56;;;;;;;19.52;13.38;;;;;;;7.60;72.29;100770.66;5052792;28;20029;-51
2021/10/28 02:29:21;;;;;;;21.50;13.50;;;;;;;7.56;70.77;100774.63;5053069;28;20031;-51
2021/10/28 02:31:47;;;;;;;19.77;12.70;;;;;;;7.52;71.55;100773.25;5052661;28;20082;-49
2021/10/28 02:34:13;;;;;;;19.25;12.63;;;;;;;7.36;73.12;100768.72;5052286;28;20131;-49
2021/10/28 02:36:38;;;;;;;24.08;13.52;;;;;;;7.34;72.11;100773.34;5051065;28;20025;-51
2021/10/28 02:39:04;;;;;;;21.85;13.75;;;;;;;7.28;71.13;100766.03;5052606;28;20052;-48
2021/10/28 02:41:29;;;;;;;19.48;12.70;;;;;;;7.31;71.93;100773.66;5052419;28;20145;-50
2021/10/28 02:43:56;;;;;;;20.92;13.70;;;;;;;7.28;71.89;100768.69;5052316;28;20116;-51
2021/10/28 02:46:22;;;;;;;21.50;13.23;;;;;;;7.26;71.99;100779.44;5052260;28;20079;-51
2021/10/28 02:48:47;;;;;;;24.13;14.30;;;;;;;7.28;72.04;100784.56;5052531;28;20028;-51
2021/10/28 02:51:13;;;;;;;22.35;13.98;;;;;;;7.22;72.34;100784.19;5052365;28;20033;-52
2021/10/28 02:53:38;;;;;;;24.48;14.57;;;;;;;6.88;72.78;100781.47;5052270;28;20021;-50
2021/10/28 02:56:04;;;;;;;24.20;13.82;;;;;;;6.86;72.71;100783.47;5052358;28;20025;-49
2021/10/28 02:58:29;;;;;;;23.30;13.65;;;;;;;6.85;72.53;100781.78;5051960;28;20099;-49
2021/10/28 03:00:55;;;;;;;20.95;13.68;;;;;;;7.09;73.02;100790.91;5052234;28;20405;-50
2021/10/28 03:03:21;;;;;;;23.10;13.23;;;;;;;7.31;71.38;100785.09;5052952;28;20035;-48
2021/10/28 03:05:46;;;;;;;23.95;14.30;;;;;;;7.07;72.43;100779.66;5052429;28;20438;-48
2021/10/28 03:08:12;;;;;;;39.03;21.88;;;;;;;7.09;72.84;100775.03;5052069;28;20024;-49
2021/10/28 03:10:37;;;;;;;44.20;25.10;;;;;;;7.18;71.05;100787.31;5065525;28;20031;-51
2021/10/28 03:13:03;;;;;;;50.15;25.95;;;;;;;6.84;73.00;100785.44;5071979;28;20024;-51
2021/10/28 03:15:34;;;;;;;50.88;26.88;;;;;;;7.02;72.90;100788.03;5071912;28;20013;-51
2021/10/28 03:26:02;;;;;;;22.65;13.35;;;;;;;7.57;71.26;100789.50;5051895;28;20035;-49
2021/10/28 03:28:28;;;;;;;21.67;13.50;;;;;;;7.32;70.05;100792.03;5051216;28;20017;-49
2021/10/28 03:30:53;;;;;;;22.88;13.80;;;;;;;7.54;69.63;100789.81;5051384;28;20032;-50
2021/10/28 03:33:21;;;;;;;20.85;13.00;;;;;;;7.24;70.90;100792.81;5051315;28;20053;-47
2021/10/28 03:35:47;;;;;;;22.30;13.05;;;;;;;7.09;71.77;100798.84;5051324;28;20029;-48
2021/10/28 03:38:20;;;;;;;26.10;14.45;;;;;;;7.21;72.24;100792.28;5051443;28;20025;-48
2021/10/28 04:16:35;;;;;;;23.88;13.25;;;;;;;6.85;73.38;100817.03;5050961;28;20027;-51
2021/10/28 04:30:25;;;;;;;21.23;13.02;;;;;;;6.64;72.55;100827.94;5049887;28;20608;-51
2021/10/28 04:32:51;;;;;;;20.33;13.02;;;;;;;6.56;75.07;100838.41;5049425;28;20043;-49
2021/10/28 04:35:16;;;;;;;20.75;12.82;;;;;;;6.57;74.29;100833.97;5049409;28;20036;-52
2021/10/28 04:37:43;;;;;;;21.50;13.25;;;;;;;6.49;74.36;100837.34;5049628;28;20405;-52
2021/10/28 04:40:09;;;;;;;21.90;13.10;;;;;;;6.51;75.66;100842.50;5047606;28;20036;-52
2021/10/28 04:42:34;;;;;;;20.95;13.52;;;;;;;6.59;76.46;100848.69;5049220;28;20450;-51
2021/10/28 04:45:00;;;;;;;25.88;14.20;;;;;;;6.46;74.02;100854.34;5049216;28;20028;-51
2021/10/28 04:47:25;;;;;;;24.77;15.00;;;;;;;6.49;73.62;100850.56;5049160;28;20123;-52
2021/10/28 04:49:51;;;;;;;29.08;15.15;;;;;;;6.33;74.10;100853.88;5048719;28;20032;-51
2021/10/28 04:52:16;;;;;;;26.88;14.90;;;;;;;6.51;74.41;100853.06;5048917;28;20021;-50
2021/10/28 04:54:42;;;;;;;23.35;14.70;;;;;;;6.21;76.09;100815.44;5049267;28;20035;-49
2021/10/28 04:57:08;;;;;;;71.78;36.65;;;;;;;6.71;73.36;100849.31;5049011;28;20025;-37
2021/10/28 04:59:34;;;;;;;35.20;18.90;;;;;;;6.46;74.18;100854.34;5049058;28;20050;-37
2021/10/28 05:02:00;;;;;;;26.00;14.50;;;;;;;6.49;73.40;100853.22;5047906;28;20075;-37
2021/10/28 05:04:25;;;;;;;24.08;14.13;;;;;;;6.58;73.44;100860.25;5047884;28;20025;-37
2021/10/28 05:06:51;;;;;;;23.15;14.10;;;;;;;6.79;72.67;100859.13;5038461;28;20108;-37
2021/10/28 05:09:19;;;;;;;23.40;14.02;;;;;;;6.55;73.45;100857.94;5040633;28;20108;-38
2021/10/28 05:11:46;;;;;;;91.07;45.15;;;;;;;7.02;77.85;100855.03;5048989;28;20031;-36
2021/10/28 05:14:11;;;;;;;52.88;25.85;;;;;;;7.56;76.11;100862.03;5048609;28;20447;-37
2021/10/28 05:16:37;;;;;;;23.63;14.35;;;;;;;7.66;70.60;100859.28;5048109;28;20442;-36
2021/10/28 05:19:03;;;;;;;28.20;14.27;;;;;;;7.58;72.06;100858.25;5046765;28;20028;-48
2021/10/28 05:21:28;;;;;;;27.30;14.50;;;;;;;7.43;71.44;100855.34;5048326;28;20084;-52
2021/10/28 05:23:54;;;;;;;27.70;16.35;;;;;;;7.52;70.61;100864.16;5048253;28;20029;-50
2021/10/28 05:26:20;;;;;;;27.35;15.30;;;;;;;7.58;70.80;100860.88;5048513;28;20469;-49
2021/10/28 05:28:45;;;;;;;23.35;14.18;;;;;;;7.73;69.84;100842.59;5048280;28;20277;-52
2021/10/28 05:31:11;;;;;;;24.02;13.30;;;;;;;8.14;68.06;100874.56;5047909;28;20545;-50
2021/10/28 05:33:36;;;;;;;29.27;12.43;;;;;;;8.48;67.46;100879.03;5047194;28;20049;-49
2021/10/28 05:36:02;;;;;;;25.58;14.75;;;;;;;8.82;66.55;100878.09;5052215;28;20025;-48
2021/10/28 05:38:27;;;;;;;40.40;21.38;;;;;;;8.85;66.48;100882.25;5052707;28;20418;-50
2021/10/28 05:40:53;;;;;;;20.50;12.38;;;;;;;9.10;65.60;100885.72;5049306;28;20013;-49
2021/10/28 05:43:18;;;;;;;18.15;11.68;;;;;;;9.44;64.69;100882.88;5050680;28;20462;-53
2021/10/28 05:45:48;;;;;;;21.75;12.60;;;;;;;9.61;62.54;100883.69;5049595;28;20025;-53
2021/10/28 05:48:13;;;;;;;57.25;32.97;;;;;;;9.84;62.55;100896.28;5050234;28;20493;-52
2021/10/28 05:50:41;;;;;;;25.42;14.77;;;;;;;9.79;61.67;100897.63;5051246;28;20728;-51
2021/10/28 05:53:08;;;;;;;25.15;12.50;;;;;;;10.08;61.22;100895.38;5048338;28;20059;-49
2021/10/28 05:55:33;;;;;;;20.83;12.73;;;;;;;10.71;61.80;100894.41;5055760;28;20540;-49
2021/10/28 05:57:59;;;;;;;22.63;12.63;;;;;;;11.06;60.25;100892.19;5061310;28;20122;-50
2021/10/28 06:00:25;;;;;;;18.42;11.82;;;;;;;11.11;59.67;100903.09;5052279;28;20465;-51
2021/10/28 06:02:51;;;;;;;19.30;11.57;;;;;;;11.17;59.37;100898.91;5053207;28;20044;-50
2021/10/28 06:05:16;;;;;;;19.17;11.07;;;;;;;11.46;58.58;100895.50;5059111;28;20036;-50
2021/10/28 06:07:42;;;;;;;19.02;11.30;;;;;;;12.03;56.14;100903.91;5056192;28;20016;-48
2021/10/28 06:10:08;;;;;;;20.52;11.60;;;;;;;12.20;55.45;100904.56;5055026;28;20075;-51
2021/10/28 06:12:37;;;;;;;17.90;11.60;;;;;;;12.00;55.45;100902.47;5051998;28;20035;-49
2021/10/28 06:15:04;;;;;;;20.90;11.57;;;;;;;12.03;54.79;100909.25;5051478;28;20102;-50
2021/10/28 06:17:33;;;;;;;16.98;11.00;;;;;;;12.08;54.98;100902.34;5051642;28;20094;-50
2021/10/28 06:19:59;;;;;;;17.20;11.20;;;;;;;12.74;54.16;100906.84;5051517;28;20096;-51
2021/10/28 06:22:26;;;;;;;16.42;10.32;;;;;;;13.32;51.55;100906.78;5051596;28;20117;-52
2021/10/28 06:24:52;;;;;;;21.27;11.48;;;;;;;13.27;51.87;100910.03;5051837;28;20036;-49
2021/10/28 06:27:17;;;;;;;14.27;10.30;;;;;;;13.15;52.07;100911.53;5051935;28;20033;-52
2021/10/28 06:29:43;;;;;;;17.23;10.07;;;;;;;13.26;51.37;100916.38;5051626;28;20081;-51
2021/10/28 06:32:08;;;;;;;14.15;9.93;;;;;;;13.38;51.81;100915.88;5058743;28;20085;-52
2021/10/28 06:34:39;;;;;;;14.93;10.52;;;;;;;14.21;50.09;100916.03;5053813;28;20045;-52
2021/10/28 06:37:05;;;;;;;21.92;10.88;;;;;;;14.58;47.28;100914.78;5051437;28;20025;-52
2021/10/28 06:39:32;;;;;;;14.20;10.35;;;;;;;14.33;47.60;100917.09;5051226;28;20025;-53
2021/10/28 06:41:57;;;;;;;16.48;9.80;;;;;;;14.12;47.42;100920.69;5050958;28;20057;-52
2021/10/28 06:44:23;;;;;;;15.07;9.77;;;;;;;14.40;52.10;100925.97;5051006;28;20085;-49
2021/10/28 06:46:48;;;;;;;15.00;9.38;;;;;;;14.65;49.47;100928.16;5049912;28;20021;-49
2021/10/28 06:49:16;;;;;;;16.35;10.57;;;;;;;14.66;49.25;100929.84;5050692;28;20033;-51
2021/10/28 06:51:42;;;;;;;15.75;10.23;;;;;;;14.82;46.51;100932.13;5050898;28;20098;-50
2021/10/28 07:02:18;;;;;;;33.35;22.60;;;;;;;15.63;47.46;100933.84;5050844;28;20112;-52
2021/10/28 07:04:46;;;;;;;18.65;10.75;;;;;;;16.08;43.62;100926.97;5050801;28;20025;-52
2021/10/28 07:07:12;;;;;;;16.20;10.45;;;;;;;15.72;44.62;100934.44;5051097;28;20041;-51
2021/10/28 07:09:40;;;;;;;18.38;10.30;;;;;;;15.15;45.62;100923.31;5050550;28;20021;-50
2021/10/28 07:12:18;;;;;;;13.33;10.10;;;;;;;15.08;44.92;100925.19;5050794;28;20223;-50
2021/10/28 07:14:47;;;;;;;16.33;10.25;;;;;;;15.01;46.04;100933.19;5050585;28;20041;-51
2021/10/28 07:22:39;;;;;;;16.83;9.75;;;;;;;14.82;46.98;100925.94;5050262;28;20127;-48
2021/10/28 08:23:09;;;;;;;14.73;8.63;;;;;;;16.72;43.33;100893.03;5049897;28;20024;-49
2021/10/28 08:31:02;;;;;;;13.70;8.88;;;;;;;17.76;40.52;100878.13;5049820;28;20031;-48
2021/10/28 08:33:27;;;;;;;12.88;8.35;;;;;;;17.28;41.44;100883.34;5049225;28;20037;-48
2021/10/28 08:35:56;;;;;;;10.02;8.10;;;;;;;17.11;42.11;100875.81;5049731;28;20450;-50
2021/10/28 08:38:22;;;;;;;13.52;8.77;;;;;;;17.10;42.40;100878.72;5049792;28;20425;-48
2021/10/28 08:40:51;;;;;;;12.25;8.73;;;;;;;17.12;41.90;100882.84;5031357;28;20103;-50
2021/10/28 08:43:17;;;;;;;11.80;8.77;;;;;;;17.29;42.01;100882.31;5048783;28;20025;-47
2021/10/28 08:45:43;;;;;;;14.60;8.73;;;;;;;17.96;40.83;100883.31;5032022;28;20067;-47
2021/10/28 08:48:09;;;;;;;11.38;7.80;;;;;;;18.70;39.29;100885.88;5049666;28;20036;-48
2021/10/28 08:50:41;;;;;;;14.35;8.50;;;;;;;18.27;40.04;100872.59;5050298;28;20029;-47
2021/10/28 08:53:22;;;;;;;9.57;7.47;;;;;;;17.96;43.38;100874.41;5049318;28;20020;-47
2021/10/28 08:55:55;;;;;;;11.40;8.25;;;;;;;17.96;40.80;100869.84;5049231;28;20029;-50
2021/10/28 09:24:12;;;;;;;13.10;8.77;;;;;;;18.20;41.39;100864.59;5052781;28;20035;-50
2021/10/28 09:31:52;;;;;;;13.98;9.23;;;;;;;17.45;42.16;100856.69;5036751;28;20040;-50
2021/10/28 09:45:38;;;;;;;19.35;9.93;;;;;;;17.39;41.58;100836.88;5044689;28;20558;-50
2021/10/28 09:49:48;;;;;;;15.18;9.27;;;;;;;17.27;41.90;100835.94;5052331;28;20043;-49
2021/10/28 09:51:20;;;;;;;14.20;9.20;;;;;;;17.35;42.54;100824.91;5050375;28;20036;-50
2021/10/28 09:59:46;;;;;;;18.08;9.38;;;;;;;17.54;41.73;100802.34;5052468;28;20039;-49
2021/10/28 10:02:30;;;;;;;13.38;9.02;;;;;;;17.41;41.98;100802.50;5052336;28;20079;-49
2021/10/28 10:04:56;;;;;;;15.68;8.80;;;;;;;17.31;41.52;100799.50;5051927;28;20029;-47
2021/10/28 10:07:22;;;;;;;11.57;8.55;;;;;;;16.95;42.38;100791.13;5051651;28;20032;-47
2021/10/28 10:09:47;;;;;;;15.25;8.52;;;;;;;17.20;41.99;100804.56;5051464;28;20025;-47
2021/10/28 10:12:14;;;;;;;13.70;9.23;;;;;;;17.16;42.16;100781.84;5051651;28;20021;-48
2021/10/28 10:14:41;;;;;;;14.48;9.77;;;;;;;17.41;41.51;100774.78;5051448;28;20025;-48
2021/10/28 10:17:08;;;;;;;15.35;9.07;;;;;;;18.20;40.22;100786.47;5051428;28;20036;-48
2021/10/28 10:19:39;;;;;;;12.95;8.75;;;;;;;17.78;41.23;100770.19;5051360;28;20032;-48
2021/10/28 10:23:17;;;;;;;14.05;9.00;;;;;;;18.02;39.81;100770.34;5033542;28;20017;-48
2021/10/28 10:25:45;;;;;;;13.32;8.85;;;;;;;17.89;40.28;100776.72;5045812;28;20040;-49
2021/10/28 11:04:41;;;;;;;6.05;5.20;;;;;;;18.02;36.86;100722.69;5049865;28;20106;-49
2021/10/28 12:16:29;;;;;;;7.57;4.00;;;;;;;17.96;34.38;100634.75;5050104;28;20410;-51
2021/10/28 12:46:32;;;;;;;4.78;3.33;;;;;;;18.53;33.74;100613.50;5047999;28;20029;-49
2021/10/28 12:57:12;;;;;;;7.93;3.97;;;;;;;18.42;34.49;100605.41;5049175;28;20473;-52
2021/10/28 13:05:37;;;;;;;6.07;3.55;;;;;;;17.80;35.35;100606.59;5030598;28;20144;-48
2021/10/28 13:37:41;;;;;;;6.65;3.25;;;;;;;17.70;35.63;100596.38;5006330;28;20119;-49
2021/10/28 14:00:41;;;;;;;5.07;3.20;;;;;;;17.75;34.96;100576.84;5052147;28;20021;-51
2021/10/28 14:18:13;;;;;;;5.20;3.53;;;;;;;17.38;36.39;100582.31;5031782;28;20059;-51
2021/10/28 14:32:37;;;;;;;6.78;3.40;;;;;;;17.00;37.07;100578.06;5051631;28;20033;-48
2021/10/28 15:40:15;;;;;;;6.38;4.18;;;;;;;15.36;42.20;100584.38;5007795;28;19979;-48
2021/10/28 16:22:40;;;;;;;10.13;5.30;;;;;;;15.97;42.48;100617.06;5049802;28;20035;-52
2021/10/28 16:25:06;;;;;;;9.93;5.15;;;;;;;16.04;42.33;100615.16;5049731;28;20086;-51
2021/10/28 16:27:32;;;;;;;9.05;5.40;;;;;;;15.94;42.84;100621.00;5049858;28;20029;-50
2021/10/28 16:29:58;;;;;;;9.77;5.57;;;;;;;15.59;43.16;100613.38;5049974;28;20043;-49
2021/10/28 16:32:24;;;;;;;10.43;5.10;;;;;;;14.86;45.92;100621.69;5049540;28;20108;-48
2021/10/28 16:34:50;;;;;;;10.13;5.63;;;;;;;14.97;45.97;100621.06;5050246;28;20033;-49
2021/10/28 16:37:18;;;;;;;13.73;6.00;;;;;;;15.33;45.39;100630.41;5049784;28;20029;-38
2021/10/28 16:39:43;;;;;;;14.90;6.43;;;;;;;15.76;44.96;100623.59;5049630;28;20029;-39
2021/10/28 16:42:09;;;;;;;12.02;6.63;;;;;;;14.69;46.98;100629.34;5049896;28;20031;-39
2021/10/28 16:44:35;;;;;;;10.18;6.50;;;;;;;14.25;46.57;100628.13;5050015;28;20033;-37
2021/10/28 16:47:01;;;;;;;14.00;6.63;;;;;;;14.67;45.87;100631.44;5050299;28;20087;-38
2021/10/28 16:49:27;;;;;;;14.63;7.18;;;;;;;14.49;46.61;100632.03;5049766;28;20081;-38
2021/10/28 16:51:52;;;;;;;18.88;6.60;;;;;;;14.01;47.30;100637.59;5049622;28;20020;-37
2021/10/28 16:54:18;;;;;;;12.93;7.13;;;;;;;14.27;47.15;100639.47;5049654;28;20043;-38
2021/10/28 16:56:45;;;;;;;13.02;6.60;;;;;;;13.98;47.84;100638.81;5049298;28;20481;-38
2021/10/28 16:59:11;;;;;;;10.75;6.63;;;;;;;13.57;48.88;100638.94;5049361;28;20031;-38
2021/10/28 17:01:36;;;;;;;14.10;7.20;;;;;;;13.59;49.03;100639.56;5049405;28;20021;-39
2021/10/28 17:04:02;;;;;;;14.05;7.13;;;;;;;13.65;48.60;100639.59;5049537;28;20082;-37
2021/10/28 17:06:28;;;;;;;16.33;8.57;;;;;;;13.24;49.71;100637.75;5049045;28;20044;-38
2021/10/28 17:08:56;;;;;;;18.58;8.63;;;;;;;13.98;47.96;100630.81;5050995;28;20036;-38
2021/10/28 17:11:22;;;;;;;16.13;7.70;;;;;;;13.51;49.34;100635.22;5069466;28;20111;-38
2021/10/28 17:13:48;;;;;;;14.00;8.52;;;;;;;13.56;49.95;100639.97;5052252;28;20056;-38
2021/10/28 17:16:14;;;;;;;13.95;8.45;;;;;;;13.25;50.11;100646.59;5049645;28;20037;-38
2021/10/28 17:18:39;;;;;;;15.85;9.52;;;;;;;13.26;50.22;100649.06;5049378;28;20025;-38
2021/10/28 17:21:06;;;;;;;18.38;9.18;;;;;;;13.77;49.46;100644.34;5048459;28;20021;-40
2021/10/28 17:23:34;;;;;;;17.50;8.93;;;;;;;13.55;48.23;100643.66;5049224;28;20051;-38
2021/10/28 17:26:03;;;;;;;14.77;8.60;;;;;;;12.88;49.50;100641.47;5042879;28;20072;-38
2021/10/28 17:28:29;;;;;;;14.85;8.15;;;;;;;12.98;49.76;100643.78;5041315;28;20044;-37
2021/10/28 17:30:54;;;;;;;15.57;8.35;;;;;;;13.03;49.07;100644.03;5051902;28;20025;-39
2021/10/28 17:33:20;;;;;;;15.57;8.88;;;;;;;13.08;49.69;100648.81;5048065;28;20049;-38
2021/10/28 17:35:45;;;;;;;18.80;11.48;;;;;;;13.40;49.65;100642.00;5033240;28;20056;-38
2021/10/28 17:38:10;;;;;;;28.15;11.25;;;;;;;13.43;50.95;100652.25;5031984;28;20477;-38
2021/10/28 17:40:37;;;;;;;32.58;13.70;;;;;;;13.00;52.08;100649.75;5033143;28;20102;-38
2021/10/28 17:43:09;;;;;;;33.60;14.18;;;;;;;12.71;53.50;100643.63;5032006;28;20025;-38
2021/10/28 17:45:36;;;;;;;25.23;11.40;;;;;;;12.59;53.64;100647.88;5032982;28;20036;-37
2021/10/28 17:48:02;;;;;;;36.40;17.45;;;;;;;12.28;54.55;100657.09;5033039;28;20048;-39
2021/10/28 17:50:27;;;;;;;18.80;9.48;;;;;;;12.02;52.49;100659.53;5044059;28;20389;-38
2021/10/28 17:52:53;;;;;;;14.40;8.98;;;;;;;12.15;51.57;100646.31;5033044;28;20030;-38
2021/10/28 17:55:19;;;;;;;13.25;7.72;;;;;;;12.11;51.27;100645.84;5031315;28;20025;-38
2021/10/28 17:57:46;;;;;;;16.83;8.73;;;;;;;12.31;51.76;100658.53;5032877;28;20036;-38
2021/10/28 18:00:12;;;;;;;13.38;8.10;;;;;;;12.94;48.88;100663.91;5043606;28;20029;-38
2021/10/28 18:02:39;;;;;;;16.50;7.72;;;;;;;12.40;49.65;100662.72;5033970;28;20424;-38
2021/10/28 18:05:05;;;;;;;10.48;6.55;;;;;;;12.15;48.91;100662.31;5032847;28;20029;-51
2021/10/28 18:07:31;;;;;;;11.73;6.53;;;;;;;12.26;49.16;100647.59;5032788;28;20030;-42
2021/10/28 18:09:58;;;;;;;9.07;5.78;;;;;;;12.13;48.88;100653.69;5019237;28;20060;-39
2021/10/28 18:12:24;;;;;;;11.30;6.05;;;;;;;12.04;49.05;100644.97;5072461;28;20519;-51
2021/10/28 18:14:50;;;;;;;10.35;6.32;;;;;;;12.34;48.23;100658.16;5053927;28;20490;-54
2021/10/28 18:17:18;;;;;;;11.82;5.80;;;;;;;12.27;48.44;100659.94;5040951;28;20037;-49
2021/10/28 18:19:43;;;;;;;9.85;5.68;;;;;;;12.82;47.44;100668.97;5051641;28;20504;-50
2021/10/28 18:22:09;;;;;;;12.55;7.82;;;;;;;12.57;48.93;100670.47;5051953;28;20021;-54
2021/10/28 18:24:34;;;;;;;18.42;10.98;;;;;;;12.17;50.51;100667.47;5052033;28;20025;-37
2021/10/28 18:27:00;;;;;;;18.67;10.07;;;;;;;12.05;52.33;100673.31;5051751;28;20029;-37
2021/10/28 18:29:25;;;;;;;16.42;8.95;;;;;;;11.79;52.77;100670.34;5051970;28;20434;-39
2021/10/28 18:31:51;;;;;;;15.23;9.23;;;;;;;11.81;53.21;100669.13;5051961;28;20056;-38
2021/10/28 18:34:18;;;;;;;16.92;9.27;;;;;;;11.83;52.53;100674.28;5051379;28;20056;-38
2021/10/28 18:36:44;;;;;;;21.83;10.30;;;;;;;11.73;52.39;100671.91;5051616;28;20033;-38
2021/10/28 18:39:11;;;;;;;21.23;10.32;;;;;;;11.67;54.34;100677.97;5050762;28;20108;-38
2021/10/28 18:41:37;;;;;;;24.02;9.10;;;;;;;11.48;54.20;100677.56;5051561;28;20377;-38
2021/10/28 18:44:03;;;;;;;23.83;11.50;;;;;;;11.45;54.93;100675.28;5051862;28;20068;-37
2021/10/28 18:46:28;;;;;;;23.10;13.25;;;;;;;11.40;55.70;100679.50;5052350;28;20479;-38
2021/10/28 18:48:58;;;;;;;27.15;15.35;;;;;;;11.33;57.16;100680.25;5051840;28;20389;-37
2021/10/28 18:51:23;;;;;;;31.55;17.15;;;;;;;11.12;57.77;100673.00;5052133;28;20029;-38
2021/10/28 18:53:51;;;;;;;34.08;18.25;;;;;;;10.94;58.55;100684.00;5051844;28;20194;-37
2021/10/28 18:56:17;;;;;;;39.40;18.98;;;;;;;10.92;58.66;100678.03;5041349;28;20030;-37
2021/10/28 18:58:43;;;;;;;30.60;16.02;;;;;;;11.08;58.62;100681.53;5030629;28;20051;-37
2021/10/28 19:01:09;;;;;;;30.35;17.05;;;;;;;10.85;59.54;100686.94;5030051;28;20060;-38
2021/10/28 19:03:36;;;;;;;35.53;18.88;;;;;;;10.64;60.66;100696.50;5031937;28;20109;-38
2021/10/28 19:06:02;;;;;;;32.95;18.08;;;;;;;10.67;60.98;100692.63;5031550;28;20041;-37
2021/10/28 19:08:28;;;;;;;35.17;20.55;;;;;;;10.48;61.94;100696.63;5031688;28;20087;-38
2021/10/28 19:10:53;;;;;;;40.78;22.30;;;;;;;10.31;62.36;100693.25;5049340;28;20025;-39
2021/10/28 19:13:19;;;;;;;44.65;21.52;;;;;;;10.37;62.34;100696.03;5051600;28;20028;-38
2021/10/28 19:15:44;;;;;;;42.53;22.83;;;;;;;10.26;62.71;100698.25;5051762;28;20465;-36
2021/10/28 19:18:10;;;;;;;43.42;23.73;;;;;;;10.35;63.16;100699.88;5051003;28;20024;-37
2021/10/28 19:20:36;;;;;;;45.88;26.25;;;;;;;10.63;61.81;100705.47;5051205;28;20017;-38
2021/10/28 19:23:03;;;;;;;109.95;61.50;;;;;;;10.68;61.07;100699.59;5051465;28;20029;-39
2021/10/28 19:25:29;;;;;;;55.70;28.85;;;;;;;10.59;62.42;100706.03;5051324;28;20053;-37
2021/10/28 19:27:55;;;;;;;50.08;26.75;;;;;;;10.56;62.05;100705.34;5051047;28;20091;-39
2021/10/28 19:32:46;;;;;;;51.20;26.08;;;;;;;10.95;61.07;100709.66;5043668;28;20148;-37
2021/10/28 19:35:11;;;;;;;47.58;26.38;;;;;;;10.62;61.41;100716.28;5050894;28;20025;-36
2021/10/28 19:37:46;;;;;;;46.35;26.42;;;;;;;10.24;62.81;100717.03;5051065;28;20017;-37
2021/10/28 19:40:29;;;;;;;54.78;27.08;;;;;;;10.18;63.35;100723.09;5050894;28;20028;-37
2021/10/28 19:46:21;;;;;;;47.78;25.20;;;;;;;10.37;62.43;100716.50;5030841;28;20036;-37
2021/10/28 19:48:27;;;;;;;47.38;26.33;;;;;;;10.41;62.48;100716.97;5022930;28;20135;-37
2021/10/28 19:50:53;;;;;;;44.92;25.90;;;;;;;10.43;62.11;100728.25;5030792;28;20038;-38
2021/10/28 19:53:18;;;;;;;45.83;24.83;;;;;;;10.54;61.01;100722.50;5030360;28;20041;-37
2021/10/28 19:55:44;;;;;;;46.03;26.27;;;;;;;10.46;61.94;100736.72;5030882;28;20091;-37
2021/10/28 19:58:14;;;;;;;46.03;25.23;;;;;;;10.54;61.52;100731.31;5030412;28;20021;-37
2021/10/28 20:00:53;;;;;;;48.17;24.27;;;;;;;10.47;61.46;100730.41;5038225;28;20013;-38
2021/10/28 20:03:29;;;;;;;45.70;23.83;;;;;;;10.41;61.60;100727.63;5050472;28;20040;-37
2021/10/28 20:14:26;;;;;;;49.53;24.25;;;;;;;10.46;62.00;100715.44;5050209;28;20078;-39